Time;durP1;ratioP1;P1;durP2;ratioP2;P2;SDS_P1;SDS_P2;PMS_P1;PMS_P2;Temp;Humidity;BMP_temperature;BMP_pressure;BME280_temperature;BME280_humidity;BME280_pressure;Samples;Min_cycle;Max_cycle;Signal;HPM_P1;HPM_P2
2023/01/01 00:01:26;;;;;;;;;;;12.00;99.90;;;11.52;100.00;97517.47;5078693;28;20006;-46
2023/01/01 00:03:53;;;;;;;;;;;11.90;99.90;;;11.48;100.00;97517.63;5079459;28;19924;-50
2023/01/01 00:06:19;;;;;;;;;;;11.90;99.90;;;11.43;100.00;97516.03;5078524;28;19924;-45
2023/01/01 00:08:45;;;;;;;;;;;11.90;99.90;;;11.39;100.00;97510.91;5080902;28;19920;-45
2023/01/01 00:11:11;;;;;;;;;;;11.80;99.90;;;11.32;100.00;97512.94;5078076;28;19928;-47
2023/01/01 00:13:38;;;;;;;;;;;11.80;99.90;;;11.28;100.00;97530.66;5081162;28;19927;-45
2023/01/01 00:16:05;;;;;;;;;;;11.70;99.90;;;11.26;100.00;97529.88;5076849;28;20431;-45
2023/01/01 00:18:31;;;;;;;;;;;11.70;99.90;;;11.21;100.00;97520.41;5082310;28;19997;-45
2023/01/01 00:21:11;;;;;;;;;;;11.70;99.90;;;11.21;100.00;97523.88;5074260;28;20376;-45
2023/01/01 00:23:37;;;;;;;;;;;11.70;99.90;;;11.25;100.00;97535.19;5078667;28;19988;-47
2023/01/01 00:26:10;;;;;;;;;;;11.60;99.90;;;11.30;100.00;97532.41;5080815;28;20360;-47
2023/01/01 00:28:36;;;;;;;;;;;11.60;99.90;;;11.31;100.00;97526.22;5078230;28;20031;-46
2023/01/01 00:31:10;;;;;;;;;;;11.60;99.90;;;11.28;100.00;97527.16;5079186;28;20052;-46
2023/01/01 00:33:35;;;;;;;;;;;11.70;99.90;;;11.31;100.00;97526.22;5077782;28;21930;-46
2023/01/01 00:36:12;;;;;;;;;;;11.70;99.90;;;11.26;100.00;97529.88;5078498;28;19923;-46
2023/01/01 00:38:38;;;;;;;;;;;11.60;99.90;;;11.22;100.00;97523.00;5079317;28;19924;-49
2023/01/01 00:41:04;;;;;;;;;;;11.60;99.90;;;11.21;100.00;97529.16;5076543;28;20318;-46
2023/01/01 00:43:30;;;;;;;;;;;11.60;99.90;;;11.24;100.00;97531.69;5078041;28;19920;-50
2023/01/01 00:45:56;;;;;;;;;;;11.70;99.90;;;11.19;100.00;97522.25;5078672;28;20106;-46
2023/01/01 00:48:21;;;;;;;;;;;11.60;99.90;;;11.19;100.00;97532.81;5079661;28;19916;-45
2023/01/01 00:50:48;;;;;;;;;;;11.60;99.90;;;11.21;100.00;97530.97;5082829;28;19959;-46
2023/01/01 00:53:13;;;;;;;;;;;11.60;99.90;;;11.24;100.00;97530.84;5084140;28;19938;-46
2023/01/01 00:55:39;;;;;;;;;;;11.60;99.90;;;11.24;100.00;97536.13;5084139;28;19916;-46
2023/01/01 00:58:05;;;;;;;;;;;11.60;99.90;;;11.23;100.00;97530.00;5080665;28;20018;-46
2023/01/01 01:00:30;;;;;;;;;;;11.60;99.90;;;11.24;100.00;97531.69;5082466;28;19924;-45
2023/01/01 01:02:56;;;;;;;;;;;11.70;99.90;;;11.23;100.00;97524.72;5082770;28;19958;-47
2023/01/01 01:05:22;;;;;;;;;;;11.70;99.90;;;11.23;100.00;97527.38;5082537;28;19924;-46
2023/01/01 01:07:47;;;;;;;;;;;11.70;99.90;;;11.30;100.00;97521.84;5081424;28;20006;-48
2023/01/01 01:10:13;;;;;;;;;;;11.70;99.90;;;11.32;100.00;97522.63;5083311;28;19920;-45
2023/01/01 01:12:39;;;;;;;;;;;11.80;99.90;;;11.30;100.00;97513.91;5082084;28;19969;-47
2023/01/01 01:15:06;;;;;;;;;;;11.70;99.90;;;11.27;100.00;97509.63;5080218;28;20329;-46
2023/01/01 01:17:32;;;;;;;;;;;11.70;99.90;;;11.18;100.00;97512.59;5083317;28;19956;-47
2023/01/01 01:19:58;;;;;;;;;;;11.60;99.90;;;11.16;100.00;97517.06;5082240;28;19939;-47
2023/01/01 01:22:24;;;;;;;;;;;11.60;99.90;;;11.05;100.00;97513.06;5083408;28;20360;-45
2023/01/01 01:24:49;;;;;;;;;;;11.50;99.90;;;11.03;100.00;97520.16;5083130;28;19920;-45
2023/01/01 01:27:15;;;;;;;;;;;11.50;99.90;;;11.07;100.00;97526.19;5080388;28;19916;-46
2023/01/01 01:29:40;;;;;;;;;;;11.40;99.90;;;11.06;100.00;97521.84;5082371;28;20441;-48
2023/01/01 01:32:06;;;;;;;;;;;11.50;99.90;;;11.07;100.00;97520.91;5087991;28;19919;-47
2023/01/01 01:34:32;;;;;;;;;;;11.40;99.90;;;11.04;100.00;97523.69;5076166;28;20359;-45
2023/01/01 01:36:57;;;;;;;;;;;11.40;99.90;;;11.01;100.00;97524.63;5081015;28;19919;-49
2023/01/01 01:39:23;;;;;;;;;;;11.40;99.90;;;10.99;100.00;97521.19;5082460;28;19922;-47
2023/01/01 01:41:48;;;;;;;;;;;11.40;99.90;;;10.93;100.00;97521.44;5082433;28;20070;-45
2023/01/01 01:44:46;;;;;;;;;;;11.40;99.90;;;10.85;100.00;97526.13;5076910;28;19966;-45
2023/01/01 01:47:24;;;;;;;;;;;11.30;99.90;;;10.63;100.00;97508.41;5083241;28;19920;-45
2023/01/01 01:49:54;;;;;;;;;;;11.20;99.90;;;10.67;100.00;97522.34;5076413;28;19941;-46
2023/01/01 01:52:20;;;;;;;;;;;11.20;99.90;;;10.68;100.00;97527.59;5079025;28;19916;-46
2023/01/01 01:54:46;;;;;;;;;;;11.20;99.90;;;10.63;100.00;97532.16;5084285;28;19916;-46
2023/01/01 01:57:12;;;;;;;;;;;11.10;99.90;;;10.60;100.00;97531.41;5077576;28;20319;-46
2023/01/01 01:59:42;;;;;;;;;;;11.10;99.90;;;10.50;100.00;97515.06;5082435;28;20326;-47
2023/01/01 02:02:15;;;;;;;;;;;11.00;99.90;;;10.54;100.00;97524.56;5077388;28;19920;-45
2023/01/01 02:04:41;;;;;;;;;;;11.00;99.90;;;10.54;100.00;97524.56;5074164;28;19916;-48
2023/01/01 02:07:07;;;;;;;;;;;11.00;99.90;;;10.63;100.00;97526.88;5083630;28;19951;-46
2023/01/01 02:09:32;;;;;;;;;;;11.00;99.90;;;10.63;100.00;97529.50;5084390;28;20007;-47
2023/01/01 02:11:58;;;;;;;;;;;11.10;99.90;;;10.68;100.00;97534.66;5083125;28;20755;-45
2023/01/01 02:14:24;;;;;;;;;;;11.10;99.90;;;10.76;100.00;97526.44;5081891;28;20070;-43
2023/01/01 02:16:57;;;;;;;;;;;11.20;99.90;;;10.75;100.00;97536.16;5078643;22;20350;-60
2023/01/01 02:19:53;;;;;;;;;;;11.20;99.90;;;10.75;100.00;97535.25;5059457;28;19920;-61
2023/01/01 02:22:52;;;;;;;;;;;11.20;99.90;;;10.75;100.00;97538.78;5064939;28;19928;-60
2023/01/01 02:25:46;;;;;;;;;;;11.20;99.90;;;10.78;100.00;97537.81;5063308;28;19970;-61
2023/01/01 02:28:36;;;;;;;;;;;11.20;99.90;;;10.79;100.00;97535.13;5057412;28;20121;-60
2023/01/01 02:31:03;;;;;;;;;;;11.20;99.90;;;10.72;100.00;97527.47;5060906;28;19916;-60
2023/01/01 02:33:29;;;;;;;;;;;11.20;99.90;;;10.73;100.00;97530.06;5057586;28;19946;-61
2023/01/01 02:36:01;;;;;;;;;;;11.20;99.90;;;10.66;100.00;97513.59;5053180;28;19974;-61
2023/01/01 02:38:29;;;;;;;;;;;11.20;99.90;;;10.99;100.00;97518.56;5060998;28;19923;-60
2023/01/01 02:40:59;;;;;;;;;;;11.30;99.90;;;10.99;100.00;97525.63;5058068;28;19921;-60
2023/01/01 02:43:24;;;;;;;;;;;11.30;99.90;;;10.94;100.00;97524.94;5066185;28;20353;-61
2023/01/01 02:45:52;;;;;;;;;;;11.40;99.90;;;10.96;100.00;97525.72;5058776;28;20007;-61
2023/01/01 02:48:36;;;;;;;;;;;11.30;99.90;;;11.03;100.00;97536.00;5056285;28;19924;-61
2023/01/01 02:51:27;;;;;;;;;;;11.40;99.90;;;11.04;100.00;97542.16;5058966;28;19916;-61
2023/01/01 02:54:18;;;;;;;;;;;11.40;99.90;;;11.08;100.00;97538.47;5072662;28;19930;-60
2023/01/01 02:56:58;;;;;;;;;;;11.40;99.90;;;11.09;100.00;97542.84;5061656;28;19955;-61
2023/01/01 03:03:07;;;;;;;;;;;11.50;99.90;;;10.97;100.00;97552.06;5059564;28;20029;-61
2023/01/01 03:05:33;;;;;;;;;;;11.40;99.90;;;10.92;100.00;97550.50;5055368;28;20368;-61
2023/01/01 03:08:20;;;;;;;;;;;11.30;99.90;;;10.89;100.00;97539.16;5075511;28;19928;-61
2023/01/01 03:10:57;;;;;;;;;;;11.30;99.90;;;10.89;100.00;97540.91;5053572;28;20146;-61
2023/01/01 03:13:33;;;;;;;;;;;11.30;99.90;;;10.89;100.00;97533.00;5062301;28;19972;-61
2023/01/01 03:16:03;;;;;;;;;;;11.30;99.90;;;10.85;100.00;97534.88;5059956;28;19920;-61
2023/01/01 03:18:37;;;;;;;;;;;11.20;99.90;;;10.80;100.00;97554.44;5062696;28;19925;-61
2023/01/01 03:21:04;;;;;;;;;;;11.20;99.90;;;10.72;100.00;97554.72;5056081;28;19939;-61
2023/01/01 03:23:36;;;;;;;;;;;11.10;99.90;;;10.58;100.00;97563.09;5058488;28;20285;-62
2023/01/01 03:26:05;;;;;;;;;;;11.00;99.90;;;10.45;100.00;97567.06;5060283;28;19978;-62
2023/01/01 03:28:34;;;;;;;;;;;10.90;99.90;;;10.33;100.00;97560.44;5057306;28;19924;-62
2023/01/01 03:31:00;;;;;;;;;;;10.80;99.90;;;10.25;100.00;97570.34;5061889;28;19922;-62
2023/01/01 03:33:33;;;;;;;;;;;10.70;99.90;;;10.12;100.00;97580.41;5057563;28;20310;-62
2023/01/01 03:36:23;;;;;;;;;;;10.60;99.90;;;10.00;100.00;97592.22;5060039;28;19964;-61
2023/01/01 03:38:56;;;;;;;;;;;10.50;99.90;;;9.91;100.00;97593.34;5058752;28;19923;-62
2023/01/01 03:41:31;;;;;;;;;;;10.40;99.90;;;9.84;100.00;97596.25;5054701;28;19916;-62
2023/01/01 03:44:06;;;;;;;;;;;10.30;99.90;;;9.78;100.00;97606.94;5057998;28;19935;-62
2023/01/01 03:46:34;;;;;;;;;;;10.30;99.90;;;9.72;100.00;97602.72;5074367;28;20011;-61
2023/01/01 03:49:00;;;;;;;;;;;10.20;99.90;;;9.66;100.00;97611.69;5061108;28;19916;-61
2023/01/01 03:51:37;;;;;;;;;;;10.20;99.90;;;9.61;100.00;97605.69;5061019;28;19916;-61
2023/01/01 03:54:07;;;;;;;;;;;10.20;99.90;;;9.62;100.00;97594.25;5060562;28;19963;-61
2023/01/01 03:56:40;;;;;;;;;;;10.10;99.90;;;9.57;100.00;97597.94;5050729;28;20403;-61
2023/01/01 03:59:14;;;;;;;;;;;10.10;99.90;;;9.57;100.00;97603.22;5059577;28;19931;-61
2023/01/01 04:01:44;;;;;;;;;;;10.00;99.90;;;9.54;100.00;97597.09;5058528;28;19927;-61
2023/01/01 04:04:10;;;;;;;;;;;10.00;99.90;;;9.50;100.00;97597.25;5055083;28;19924;-61
2023/01/01 04:06:36;;;;;;;;;;;10.00;99.90;;;9.47;100.00;97590.28;5054737;28;19924;-61
2023/01/01 04:09:03;;;;;;;;;;;10.00;99.90;;;9.49;100.00;97595.50;5060847;28;20360;-61
2023/01/01 04:14:28;;;;;;;;;;;9.90;99.90;;;9.42;100.00;97588.72;5053881;28;19923;-61
2023/01/01 04:16:56;;;;;;;;;;;9.90;99.90;;;9.34;100.00;97584.53;5061755;28;19924;-61
2023/01/01 04:19:22;;;;;;;;;;;9.80;99.90;;;9.38;100.00;97584.44;5058843;28;19971;-61
2023/01/01 04:21:48;;;;;;;;;;;9.80;99.90;;;9.40;100.00;97585.25;5062464;28;19917;-61
2023/01/01 04:24:13;;;;;;;;;;;9.90;99.90;;;9.41;100.00;97587.00;5058709;28;19989;-61
2023/01/01 04:26:40;;;;;;;;;;;9.90;99.90;;;9.51;100.00;97583.16;5060323;28;19931;-60
2023/01/01 04:29:05;;;;;;;;;;;9.90;99.90;;;9.58;100.00;97575.94;5064578;28;19917;-60
2023/01/01 04:31:33;;;;;;;;;;;10.00;99.90;;;9.59;100.00;97581.19;5057244;28;20272;-61
2023/01/01 04:33:58;;;;;;;;;;;10.10;99.90;;;9.59;100.00;97575.06;5061553;28;20495;-61
2023/01/01 04:36:24;;;;;;;;;;;10.00;99.90;;;9.64;100.00;97581.91;5060240;28;20133;-61
2023/01/01 04:38:49;;;;;;;;;;;10.10;99.90;;;9.73;100.00;97570.22;5059682;28;19955;-60
2023/01/01 04:41:15;;;;;;;;;;;10.10;99.90;;;9.72;100.00;97581.66;5062592;28;19928;-61
2023/01/01 04:43:41;;;;;;;;;;;10.20;99.90;;;9.70;100.00;97573.81;5059359;28;20769;-61
2023/01/01 04:46:06;;;;;;;;;;;10.20;99.90;;;9.77;100.00;97574.50;5056571;28;19924;-61
2023/01/01 04:48:34;;;;;;;;;;;10.20;99.90;;;9.81;100.00;97576.09;5061134;28;19959;-61
2023/01/01 04:51:03;;;;;;;;;;;10.30;99.90;;;9.81;100.00;97580.53;5062124;28;19916;-61
2023/01/01 04:53:30;;;;;;;;;;;10.30;99.90;;;9.79;100.00;97580.56;5060025;28;20022;-61
2023/01/01 04:56:02;;;;;;;;;;;10.30;99.90;;;9.81;100.00;97580.53;5060146;28;20308;-60
2023/01/01 04:58:28;;;;;;;;;;;10.30;99.90;;;9.84;100.00;97590.97;5060276;28;19920;-61
2023/01/01 05:00:53;;;;;;;;;;;10.30;99.90;;;9.89;100.00;97591.69;5059771;28;20410;-60
2023/01/01 05:03:19;;;;;;;;;;;10.30;99.90;;;9.92;100.00;97588.94;5057747;28;19962;-60
2023/01/01 05:05:44;;;;;;;;;;;10.40;99.90;;;9.94;100.00;97597.66;5061115;28;20400;-61
2023/01/01 05:08:10;;;;;;;;;;;10.40;99.90;;;9.94;100.00;97597.66;5060933;28;19916;-60
2023/01/01 05:10:36;;;;;;;;;;;10.40;99.90;;;9.93;100.00;97603.84;5061357;28;20265;-61
2023/01/01 05:13:05;;;;;;;;;;;10.40;99.90;;;9.95;100.00;97594.13;5063867;28;19956;-61
2023/01/01 05:15:31;;;;;;;;;;;10.40;99.90;;;10.02;100.00;97597.44;5055926;28;20423;-61
2023/01/01 05:17:56;;;;;;;;;;;10.50;99.90;;;10.06;100.00;97596.41;5062247;28;20042;-61
2023/01/01 05:20:22;;;;;;;;;;;10.50;99.90;;;10.07;100.00;97599.00;5064177;28;19929;-61
2023/01/01 05:22:48;;;;;;;;;;;10.50;99.90;;;10.09;100.00;97597.19;5060335;28;19931;-61
2023/01/01 05:25:13;;;;;;;;;;;10.60;99.90;;;10.12;100.00;97607.66;5061450;28;19916;-61
2023/01/01 05:27:39;;;;;;;;;;;10.60;99.90;;;10.13;100.00;97608.50;5057509;28;19943;-61
2023/01/01 05:30:05;;;;;;;;;;;10.60;99.90;;;10.18;100.00;97611.00;5056699;28;20435;-61
2023/01/01 05:32:30;;;;;;;;;;;10.60;99.90;;;10.17;100.00;97609.25;5055308;28;19916;-61
2023/01/01 05:34:56;;;;;;;;;;;10.60;99.90;;;10.14;100.00;97604.97;5061067;28;19977;-61
2023/01/01 05:37:22;;;;;;;;;;;10.60;99.90;;;10.17;100.00;97614.53;5064165;28;19917;-61
2023/01/01 05:39:48;;;;;;;;;;;10.60;99.90;;;10.12;100.00;97612.91;5064734;28;20349;-61
2023/01/01 05:42:14;;;;;;;;;;;10.50;99.90;;;9.98;100.00;97586.13;5063372;28;20376;-61
2023/01/01 05:44:40;;;;;;;;;;;10.50;99.90;;;10.08;100.00;97615.69;5059735;28;20158;-61
2023/01/01 05:47:05;;;;;;;;;;;10.50;99.90;;;9.98;100.00;97617.75;5066521;28;20003;-60
2023/01/01 05:49:31;;;;;;;;;;;10.40;99.90;;;9.92;100.00;97628.47;5061107;28;20384;-60
2023/01/01 05:51:56;;;;;;;;;;;10.40;99.90;;;9.96;100.00;97623.97;5062015;28;19935;-61
2023/01/01 05:54:22;;;;;;;;;;;10.30;99.90;;;9.95;100.00;97631.00;5060961;28;19962;-61
2023/01/01 05:56:48;;;;;;;;;;;10.30;99.90;;;9.94;100.00;97624.00;5059355;28;19923;-61
2023/01/01 05:59:13;;;;;;;;;;;10.30;99.90;;;9.88;100.00;97621.56;5066823;28;19920;-61
2023/01/01 06:01:39;;;;;;;;;;;10.30;99.90;;;9.84;100.00;97627.84;5059985;28;20766;-61
2023/01/01 06:04:04;;;;;;;;;;;10.30;99.90;;;9.85;100.00;97625.19;5067232;28;19920;-61
2023/01/01 06:06:32;;;;;;;;;;;10.30;99.90;;;9.80;100.00;97619.19;5062769;28;19966;-61
2023/01/01 06:09:00;;;;;;;;;;;10.30;99.90;;;9.84;100.00;97627.84;5064138;28;19969;-61
2023/01/01 06:11:26;;;;;;;;;;;10.30;99.90;;;9.84;100.00;97619.94;5063500;28;20356;-61
2023/01/01 06:13:57;;;;;;;;;;;10.30;99.90;;;9.87;100.00;97635.63;5061295;28;19963;-61
2023/01/01 06:16:23;;;;;;;;;;;10.30;99.90;;;9.86;100.00;97634.78;5059045;28;20609;-61
2023/01/01 06:18:49;;;;;;;;;;;10.30;99.90;;;9.82;100.00;97634.94;5065203;28;19917;-61
2023/01/01 06:21:17;;;;;;;;;;;10.30;99.90;;;9.82;100.00;97634.94;5063510;28;19969;-61
2023/01/01 06:23:42;;;;;;;;;;;10.30;99.90;;;9.86;100.00;97637.41;5060832;28;19927;-61
2023/01/01 06:26:14;;;;;;;;;;;10.30;99.90;;;9.92;100.00;97646.91;5065696;28;19920;-61
2023/01/01 06:28:40;;;;;;;;;;;10.30;99.90;;;9.88;100.00;97655.81;5061368;28;19920;-61
2023/01/01 06:31:07;;;;;;;;;;;10.30;99.90;;;9.86;100.00;97647.97;5065435;28;20027;-61
2023/01/01 06:33:33;;;;;;;;;;;10.30;99.90;;;9.87;100.00;97648.81;5059984;28;19970;-61
2023/01/01 06:36:01;;;;;;;;;;;10.30;99.90;;;9.83;100.00;97642.78;5061415;28;19921;-61
2023/01/01 06:38:26;;;;;;;;;;;10.30;99.90;;;9.83;100.00;97649.81;5061229;28;20042;-60
2023/01/01 06:41:00;;;;;;;;;;;10.30;99.90;;;9.80;100.00;97657.81;5062153;28;19938;-60
2023/01/01 06:43:26;;;;;;;;;;;10.30;99.90;;;9.76;100.00;97654.41;5061852;28;19924;-60
2023/01/01 06:46:13;;;;;;;;;;;10.20;99.90;;;9.71;100.00;97649.28;5060336;28;20514;-60
2023/01/01 06:48:38;;;;;;;;;;;10.20;99.90;;;9.71;100.00;97653.69;5056141;28;19935;-60
2023/01/01 06:51:12;;;;;;;;;;;10.10;99.90;;;9.71;100.00;97658.97;5061681;28;19924;-60
2023/01/01 06:53:38;;;;;;;;;;;10.20;99.90;;;9.67;100.00;97654.69;5061096;28;19916;-60
2023/01/01 06:56:04;;;;;;;;;;;10.10;99.90;;;9.68;100.00;97646.72;5060135;28;20084;-60
2023/01/01 06:58:30;;;;;;;;;;;10.20;99.90;;;9.71;100.00;97654.56;5060989;28;20322;-60
2023/01/01 07:01:08;;;;;;;;;;;10.10;99.90;;;9.68;100.00;97654.63;5061880;28;19917;-60
2023/01/01 07:03:33;;;;;;;;;;;10.20;99.90;;;9.68;100.00;97649.38;5062443;28;19924;-60
2023/01/01 07:05:59;;;;;;;;;;;10.10;99.90;;;9.66;100.00;97645.06;5057637;28;20458;-60
2023/01/01 07:08:25;;;;;;;;;;;10.10;99.90;;;9.65;100.00;97649.44;5060129;28;19924;-60
2023/01/01 07:10:50;;;;;;;;;;;10.10;99.90;;;9.64;100.00;97652.16;5063965;28;20414;-60
2023/01/01 07:13:16;;;;;;;;;;;10.10;99.90;;;9.62;100.00;97644.28;5059028;28;19931;-60
2023/01/01 07:15:43;;;;;;;;;;;10.10;99.90;;;9.67;100.00;97650.28;5062795;28;19924;-60
2023/01/01 07:18:09;;;;;;;;;;;10.10;99.90;;;9.67;100.00;97662.56;5057667;28;19957;-61
2023/01/01 07:20:34;;;;;;;;;;;10.10;99.90;;;9.62;100.00;97661.84;5061969;28;19920;-61
2023/01/01 07:23:01;;;;;;;;;;;10.10;99.90;;;9.63;100.00;97658.31;5062138;28;19966;-60
2023/01/01 07:25:27;;;;;;;;;;;10.10;99.90;;;9.65;100.00;97659.97;5059553;28;20023;-61
2023/01/01 07:27:52;;;;;;;;;;;10.10;99.90;;;9.65;100.00;97662.63;5061469;28;20006;-60
2023/01/01 07:30:18;;;;;;;;;;;10.10;99.90;;;9.68;100.00;97665.16;5062533;28;19921;-60
2023/01/01 07:32:43;;;;;;;;;;;10.10;99.90;;;9.68;100.00;97665.16;5061867;28;20364;-60
2023/01/01 07:35:09;;;;;;;;;;;10.10;99.90;;;9.59;100.00;97643.53;5061036;28;20418;-60
2023/01/01 07:37:35;;;;;;;;;;;10.20;99.90;;;9.84;100.00;97665.59;5062041;28;20018;-60
2023/01/01 07:40:00;;;;;;;;;;;10.20;99.90;;;9.85;100.00;97674.34;5061735;28;19974;-60
2023/01/01 07:42:26;;;;;;;;;;;10.30;99.90;;;9.85;100.00;97677.84;5060443;28;19932;-60
2023/01/01 07:44:52;;;;;;;;;;;10.30;99.90;;;9.91;100.00;97690.84;5061220;28;19982;-61
2023/01/01 07:47:25;;;;;;;;;;;10.40;99.90;;;9.94;100.00;97689.88;5061895;28;19955;-60
2023/01/01 07:49:51;;;;;;;;;;;10.40;99.90;;;9.98;100.00;97694.16;5060139;28;19942;-60
2023/01/01 07:52:17;;;;;;;;;;;10.40;99.90;;;10.10;100.00;97695.53;5059589;28;20413;-60
2023/01/01 07:54:42;;;;;;;;;;;10.50;99.90;;;10.11;100.00;97692.88;5061181;28;19925;-60
2023/01/01 07:57:08;;;;;;;;;;;10.60;99.90;;;10.22;100.00;97697.81;5060329;28;19963;-60
2023/01/01 07:59:34;;;;;;;;;;;10.70;99.90;;;10.31;100.00;97708.09;5063015;28;20597;-60
2023/01/01 08:01:59;;;;;;;;;;;10.70;99.90;;;10.38;100.00;97713.19;5062721;28;20049;-60
2023/01/01 08:04:28;;;;;;;;;;;10.80;99.90;;;10.36;100.00;97717.66;5059481;28;19924;-60
2023/01/01 08:06:53;;;;;;;;;;;10.80;99.90;;;10.39;100.00;97715.78;5059300;28;20372;-60
2023/01/01 08:09:19;;;;;;;;;;;10.90;99.90;;;10.53;100.00;97730.31;5064599;28;20298;-60
2023/01/01 08:11:44;;;;;;;;;;;10.90;99.90;;;10.56;100.00;97738.13;5062020;28;20258;-60
2023/01/01 08:14:11;;;;;;;;;;;11.00;99.90;;;10.59;100.00;97732.78;5061661;28;19916;-60
2023/01/01 08:16:36;;;;;;;;;;;11.00;99.90;;;10.60;100.00;97726.56;5059823;22;19940;-46
2023/01/01 08:19:02;;;;;;;;;;;11.10;99.90;;;10.56;100.00;97732.84;5034962;28;19917;-45
2023/01/01 08:21:28;;;;;;;;;;;11.00;99.90;;;10.54;100.00;97738.19;5035231;28;19924;-47
2023/01/01 08:23:53;;;;;;;;;;;11.00;99.90;;;10.50;100.00;97732.13;5034228;28;19932;-48
2023/01/01 08:26:28;;;;;;;;;;;11.00;99.90;;;10.47;100.00;97745.41;5029869;28;20412;-45
2023/01/01 08:28:53;;;;;;;;;;;10.90;99.90;;;10.43;100.00;97738.50;5020415;28;19925;-46
2023/01/01 08:31:19;;;;;;;;;;;10.90;99.90;;;10.44;100.00;97742.84;5020746;28;19925;-46
2023/01/01 08:33:44;;;;;;;;;;;10.90;99.90;;;10.41;100.00;97742.97;5020977;28;19918;-45
2023/01/01 08:36:11;;;;;;;;;;;10.90;99.90;;;10.43;100.00;97753.47;5020254;28;19921;-46
2023/01/01 08:38:37;;;;;;;;;;;10.90;99.90;;;10.43;100.00;97748.19;5015407;28;19921;-46
2023/01/01 08:41:03;;;;;;;;;;;10.90;99.90;;;10.42;100.00;97754.38;5019417;28;19921;-46
2023/01/01 08:43:28;;;;;;;;;;;10.90;99.90;;;10.42;100.00;97743.81;5020278;28;19921;-46
2023/01/01 08:45:54;;;;;;;;;;;10.90;99.90;;;10.45;100.00;97751.66;5019384;28;20356;-46
2023/01/01 08:48:19;;;;;;;;;;;10.90;99.90;;;10.44;100.00;97745.50;5020696;28;20320;-45
2023/01/01 08:50:55;;;;;;;;;;;11.00;99.90;;;10.57;100.00;97760.94;5018429;28;19960;-45
2023/01/01 08:53:21;;;;;;;;;;;11.00;99.90;;;10.60;100.00;97752.94;5019840;28;20392;-46
2023/01/01 08:56:00;;;;;;;;;;;11.00;99.90;;;10.65;100.00;97754.50;4997705;28;20537;-47
2023/01/01 08:58:26;;;;;;;;;;;11.10;99.90;;;10.71;100.00;97753.44;5020577;28;19925;-45
2023/01/01 09:00:53;;;;;;;;;;;11.20;99.90;;;10.74;100.00;97756.00;5023236;28;19932;-47
2023/01/01 09:03:18;;;;;;;;;;;11.20;99.90;;;10.81;100.00;97751.41;5020039;28;20016;-45
2023/01/01 09:05:44;;;;;;;;;;;11.30;99.90;;;10.89;100.00;97752.00;5020144;28;20182;-46
2023/01/01 09:08:11;;;;;;;;;;;11.40;99.90;;;10.95;100.00;97758.88;5019901;28;19921;-44
2023/01/01 09:10:36;;;;;;;;;;;11.40;99.90;;;11.00;100.00;97754.28;5024466;28;19921;-46
2023/01/01 09:13:02;;;;;;;;;;;11.50;99.90;;;11.10;100.00;97766.28;5021733;28;19943;-44
2023/01/01 09:15:28;;;;;;;;;;;11.60;99.90;;;11.14;100.00;97765.25;5021223;28;19917;-44
2023/01/01 09:17:53;;;;;;;;;;;11.60;99.90;;;11.26;100.00;97756.06;5020939;28;20020;-46
2023/01/01 09:20:19;;;;;;;;;;;11.70;99.90;;;11.20;100.00;97751.00;5023106;28;19932;-45
2023/01/01 09:22:45;;;;;;;;;;;11.80;99.90;;;11.35;100.00;97768.94;5022758;28;20277;-45
2023/01/01 09:25:10;;;;;;;;;;;11.80;99.90;;;11.43;100.00;97769.56;5024660;28;20098;-45
2023/01/01 09:27:36;;;;;;;;;;;11.80;99.90;;;11.45;100.00;97769.50;5019360;28;19917;-46
2023/01/01 09:30:01;;;;;;;;;;;11.90;99.90;;;11.44;100.00;97759.84;5024203;28;20003;-44
2023/01/01 09:32:27;;;;;;;;;;;11.90;99.90;;;11.55;100.00;97762.13;5024777;28;19921;-45
2023/01/01 09:34:53;;;;;;;;;;;12.00;99.90;;;11.60;100.00;97773.38;5020460;28;19925;-46
2023/01/01 09:37:18;;;;;;;;;;;12.10;99.90;;;11.62;100.00;97759.19;5022964;28;19932;-46
2023/01/01 09:39:44;;;;;;;;;;;12.10;99.90;;;11.69;100.00;97765.13;5021348;28;20301;-45
2023/01/01 09:42:21;;;;;;;;;;;12.10;99.90;;;11.75;100.00;97758.75;5019698;28;19917;-45
2023/01/01 09:45:04;;;;;;;;;;;12.20;99.90;;;11.85;100.00;97770.75;5006524;28;19921;-45
2023/01/01 09:47:34;;;;;;;;;;;12.30;99.90;;;11.88;100.00;97768.00;5020426;28;19923;-45
2023/01/01 09:50:21;;;;;;;;;;;12.40;99.90;;;12.00;100.00;97777.28;5024978;28;20402;-45
2023/01/01 09:52:58;;;;;;;;;;;12.40;99.90;;;12.03;100.00;97782.44;5021819;28;20431;-45
2023/01/01 09:55:38;;;;;;;;;;;12.50;99.90;;;12.13;100.00;97775.03;5020432;28;19923;-45
2023/01/01 09:58:04;;;;;;;;;;;12.60;99.90;;;12.20;100.00;97781.81;5004474;28;20305;-45
2023/01/01 10:00:32;;;;;;;;;;;12.60;99.90;;;12.28;100.00;97782.41;5019835;28;19929;-46
2023/01/01 10:03:10;;;;;;;;;;;12.70;99.90;;;12.35;100.00;97783.91;5003080;28;19972;-45
2023/01/01 10:06:01;;;;;;;;;;;12.80;99.90;;;12.46;100.00;97772.91;5022142;28;19924;-45
2023/01/01 10:08:53;;;;;;;;;;;12.90;99.90;;;12.57;100.00;97780.44;5021297;28;19917;-45
2023/01/01 10:11:41;;;;;;;;;;;13.00;99.90;;;12.65;100.00;97788.94;5019122;28;19925;-45
2023/01/01 10:14:17;;;;;;;;;;;13.00;99.90;;;12.73;100.00;97786.84;5022042;28;19917;-47
2023/01/01 10:16:45;;;;;;;;;;;13.10;99.90;;;12.82;100.00;97775.03;5018103;28;19921;-45
2023/01/01 10:19:35;;;;;;;;;;;13.20;99.90;;;12.90;100.00;97778.25;5010100;28;19921;-46
2023/01/01 10:22:05;;;;;;;;;;;13.30;99.90;;;12.96;100.00;97769.19;5007881;28;19920;-46
2023/01/01 10:24:39;;;;;;;;;;;13.40;99.90;;;13.02;100.00;97760.97;5018308;28;20374;-46
2023/01/01 10:27:05;;;;;;;;;;;13.40;99.90;;;12.91;100.00;97742.03;5021658;28;19920;-46
2023/01/01 10:29:43;;;;;;;;;;;13.50;99.90;;;13.10;100.00;97771.25;5022001;28;19925;-46
2023/01/01 10:32:27;;;;;;;;;;;13.50;99.90;;;13.11;100.00;97765.88;5006213;28;20436;-46
2023/01/01 10:34:52;;;;;;;;;;;13.50;99.90;;;13.18;99.61;97771.81;5005610;28;20377;-48
2023/01/01 10:37:19;;;;;;;;;;;13.60;99.90;;;13.24;98.05;97760.09;5006169;28;19960;-47
2023/01/01 10:39:45;;;;;;;;;;;13.70;99.90;;;13.31;95.37;97767.72;5004633;28;19925;-50
2023/01/01 10:42:12;;;;;;;;;;;13.70;99.90;;;13.36;95.51;97763.09;5003226;28;19928;-46
2023/01/01 10:44:38;;;;;;;;;;;13.80;99.90;;;13.46;95.10;97768.00;5021749;28;19936;-46
2023/01/01 10:47:23;;;;;;;;;;;13.80;99.90;;;13.53;93.36;97757.09;5023847;28;19917;-49
2023/01/01 10:49:56;;;;;;;;;;;13.90;99.90;;;13.62;93.99;97757.63;5020869;28;20377;-48
2023/01/01 10:52:25;;;;;;;;;;;14.00;99.90;;;13.67;95.83;97759.13;5020925;28;19924;-47
2023/01/01 10:54:51;;;;;;;;;;;14.10;99.90;;;13.73;95.03;97758.88;5002331;28;20381;-49
2023/01/01 10:57:27;;;;;;;;;;;14.10;99.90;;;13.78;93.18;97761.31;5022824;28;19928;-48
2023/01/01 10:59:53;;;;;;;;;;;14.20;99.90;;;13.85;90.60;97762.75;5022790;28;20439;-46
2023/01/01 11:02:26;;;;;;;;;;;14.30;99.90;;;13.92;90.14;97758.91;5004449;28;19925;-46
2023/01/01 11:05:18;;;;;;;;;;;14.30;99.90;;;13.94;89.34;97757.06;5021152;28;20293;-47
2023/01/01 11:07:44;;;;;;;;;;;14.30;99.90;;;14.00;89.73;97758.59;5020690;28;20327;-47
2023/01/01 11:10:18;;;;;;;;;;;14.40;99.90;;;14.05;86.34;97750.41;5021711;28;19917;-46
2023/01/01 11:12:44;;;;;;;;;;;14.40;99.90;;;14.08;87.10;97743.16;5022577;28;20381;-46
2023/01/01 11:15:34;;;;;;;;;;;14.50;99.90;;;14.15;87.04;97746.41;5021905;28;19928;-47
2023/01/01 11:18:04;;;;;;;;;;;14.60;99.90;;;14.21;86.34;97740.84;5009584;28;19964;-47
2023/01/01 11:20:31;;;;;;;;;;;14.60;99.90;;;14.25;86.14;97742.41;5021126;28;19932;-45
2023/01/01 11:22:56;;;;;;;;;;;14.60;99.90;;;14.28;85.44;97744.94;5019396;28;20374;-46
2023/01/01 11:25:25;;;;;;;;;;;14.70;99.90;;;14.32;85.38;97740.34;5020989;28;19925;-46
2023/01/01 11:27:52;;;;;;;;;;;14.70;99.90;;;14.37;85.07;97742.78;5020050;28;19963;-47